Terminal Aerodrome Forecast
Issued by NWS

Current Version | Previous Version | Text Only | Print | Product List | Glossary On
Versions: 1 2 3 4 5 6 7 8 9 10 11 12 13 14 15 16 17 18 19
000
FTUS44 KMAF 272300
TAFINK
TAF
KINK 272328Z 2800/2824 VRB05KT P6SM BKN015
     FM280300 VRB04KT P6SM SCT050
     FM281200 25005KT P6SM BKN015
     FM281700 24014KT P6SM SKC=

USA.gov is the U.S. government's official web portal to all federal, state and local government web resources and services.